createdAt,value
2023-03-17T00:00:52.274Z,26.27
2023-03-17T00:56:28.042Z,26.26
2023-03-17T01:00:29.458Z,26.29
2023-03-17T01:04:29.944Z,26.30
2023-03-17T01:08:29.490Z,26.26
2023-03-17T01:12:29.621Z,26.29
2023-03-17T01:16:29.611Z,26.27
2023-03-17T01:20:29.759Z,26.24
2023-03-17T01:24:29.556Z,26.23
2023-03-17T01:28:29.475Z,26.21
2023-03-17T01:32:29.518Z,26.20
2023-03-17T01:36:29.432Z,26.23
2023-03-17T01:40:29.768Z,26.21
2023-03-17T01:44:29.374Z,26.20
2023-03-17T01:48:29.292Z,26.26
2023-03-17T01:52:29.250Z,26.23
2023-03-17T01:56:29.532Z,26.24
2023-03-17T02:00:29.689Z,26.21
2023-03-17T02:04:29.415Z,26.21
2023-03-17T02:08:29.498Z,26.24
2023-03-17T02:12:29.268Z,26.21
2023-03-17T02:16:29.341Z,26.20
2023-03-17T02:20:29.744Z,26.21
2023-03-17T02:24:29.204Z,26.20
2023-03-17T02:28:29.546Z,26.20
2023-03-17T02:32:29.254Z,26.19
2023-03-17T02:36:29.369Z,26.20
2023-03-17T02:40:29.604Z,26.21
2023-03-17T02:44:29.242Z,26.20
2023-03-17T02:48:29.202Z,26.20
2023-03-17T02:52:29.211Z,26.19
2023-03-17T02:56:29.183Z,26.17
2023-03-17T03:00:29.563Z,26.19
2023-03-17T03:04:29.178Z,26.20
2023-03-17T03:08:30.002Z,26.20
2023-03-17T03:12:29.160Z,26.20
2023-03-17T03:16:29.145Z,26.19
2023-03-17T03:20:29.432Z,26.19
2023-03-17T03:24:29.565Z,26.20
2023-03-17T03:28:29.075Z,26.19
2023-03-17T03:32:29.090Z,26.21
2023-03-17T03:36:29.104Z,26.17
2023-03-17T03:40:29.865Z,26.19
2023-03-17T03:44:29.040Z,26.17
2023-03-17T03:48:29.019Z,26.19
2023-03-17T03:52:28.970Z,26.16
2023-03-17T03:56:28.903Z,26.17
2023-03-17T04:00:29.237Z,26.19
2023-03-17T04:04:28.940Z,26.15
2023-03-17T04:08:28.793Z,26.16
2023-03-17T04:12:28.760Z,26.17
2023-03-17T04:16:29.008Z,26.17
2023-03-17T04:20:29.422Z,26.16
2023-03-17T04:24:28.918Z,26.17
2023-03-17T04:28:28.868Z,26.19
2023-03-17T04:32:28.920Z,26.16
2023-03-17T04:36:28.846Z,26.19
2023-03-17T04:40:29.178Z,26.17
2023-03-17T04:44:28.814Z,26.17
2023-03-17T04:48:28.735Z,26.15
2023-03-17T04:52:28.779Z,26.17
2023-03-17T04:56:31.206Z,26.16
2023-03-17T05:00:29.136Z,26.17
2023-03-17T05:04:31.974Z,26.15
2023-03-17T05:08:28.775Z,26.17
2023-03-17T05:12:28.829Z,26.15
2023-03-17T05:16:28.658Z,26.17
2023-03-17T05:20:29.183Z,26.15
2023-03-17T05:24:28.594Z,26.15
2023-03-17T05:28:28.632Z,26.16
2023-03-17T05:32:28.643Z,26.17
2023-03-17T05:36:28.573Z,26.16
2023-03-17T05:40:28.918Z,26.15
2023-03-17T05:44:28.551Z,26.12
2023-03-17T05:48:28.457Z,26.13
2023-03-17T05:52:28.422Z,26.15
2023-03-17T05:56:28.483Z,26.15
2023-03-17T06:00:28.934Z,26.16
2023-03-17T06:04:28.415Z,26.16
2023-03-17T06:08:28.619Z,26.15
2023-03-17T06:12:28.604Z,26.16
2023-03-17T06:16:28.682Z,26.17
2023-03-17T06:20:28.293Z,26.15
2023-03-17T06:24:28.608Z,26.13
2023-03-17T06:28:28.620Z,26.17
2023-03-17T06:32:28.852Z,26.20
2023-03-17T06:36:28.356Z,26.26
2023-03-17T06:40:28.619Z,26.29
2023-03-17T06:44:29.125Z,26.33
2023-03-17T06:48:29.235Z,26.34
2023-03-17T06:52:29.131Z,26.38
2023-03-17T06:56:30.574Z,26.38
2023-03-17T07:00:29.109Z,26.36
2023-03-17T07:04:29.228Z,26.34
2023-03-17T07:08:29.140Z,26.31
2023-03-17T07:12:28.958Z,26.27
2023-03-17T07:16:29.207Z,26.27
2023-03-17T07:20:29.173Z,26.24
2023-03-17T07:24:29.120Z,26.24
2023-03-17T07:28:29.134Z,26.21
2023-03-17T07:32:28.878Z,26.20
2023-03-17T07:36:29.171Z,26.19
2023-03-17T07:40:29.136Z,26.20
2023-03-17T07:44:29.157Z,26.19
2023-03-17T07:48:29.136Z,26.17
2023-03-17T07:56:29.156Z,26.20
2023-03-17T08:00:29.367Z,26.19
2023-03-17T08:04:29.166Z,26.19
2023-03-17T08:08:29.171Z,26.17
2023-03-17T08:12:29.241Z,26.19
2023-03-17T08:16:30.175Z,26.17
2023-03-17T08:20:29.778Z,26.21
2023-03-17T08:24:29.172Z,26.19
2023-03-17T08:28:29.189Z,26.21
2023-03-17T08:32:29.331Z,26.21
2023-03-17T08:36:29.227Z,26.24
2023-03-17T08:40:29.427Z,26.24
2023-03-17T08:44:29.149Z,26.24
2023-03-17T08:48:29.149Z,26.24
2023-03-17T08:52:28.884Z,26.23
2023-03-17T08:56:29.229Z,26.29
2023-03-17T09:00:29.369Z,26.40
2023-03-17T09:04:29.308Z,26.51
2023-03-17T09:08:29.192Z,26.54
2023-03-17T09:12:29.243Z,26.55
2023-03-17T09:16:28.873Z,26.51
2023-03-17T09:20:29.236Z,26.50
2023-03-17T09:24:29.186Z,26.45
2023-03-17T09:28:29.321Z,26.44
2023-03-17T09:32:29.156Z,26.43
2023-03-17T09:36:29.711Z,26.41
2023-03-17T09:40:30.378Z,26.41
2023-03-17T09:44:30.676Z,26.43
2023-03-17T09:48:30.681Z,26.41
2023-03-17T09:52:30.190Z,26.41
2023-03-17T09:56:30.265Z,26.40
2023-03-17T10:00:33.917Z,26.40
2023-03-17T10:04:30.397Z,26.40
2023-03-17T10:08:32.179Z,26.40
2023-03-17T10:12:30.774Z,26.38
2023-03-17T10:16:30.753Z,26.38
2023-03-17T10:20:30.708Z,26.38
2023-03-17T10:24:30.693Z,26.40
2023-03-17T10:28:30.196Z,26.47
2023-03-17T10:32:30.264Z,26.50
2023-03-17T10:36:30.198Z,26.58
2023-03-17T10:40:31.049Z,26.65
2023-03-17T10:44:30.703Z,26.72
2023-03-17T10:48:30.738Z,26.75
2023-03-17T10:52:30.714Z,26.82
2023-03-17T10:56:30.224Z,26.85
2023-03-17T11:00:30.529Z,26.85
2023-03-17T11:04:30.753Z,26.90
2023-03-17T11:08:30.742Z,26.89
2023-03-17T11:12:30.559Z,26.92
2023-03-17T11:16:30.825Z,26.92
2023-03-17T11:20:30.844Z,26.88
2023-03-17T11:24:32.142Z,26.85
2023-03-17T11:28:31.237Z,26.83
2023-03-17T11:32:31.285Z,26.78
2023-03-17T11:36:31.758Z,26.74
2023-03-17T11:40:31.608Z,26.72
2023-03-17T11:44:31.251Z,26.72
2023-03-17T11:48:31.239Z,26.68
2023-03-17T11:52:31.325Z,26.67
2023-03-17T11:56:31.240Z,26.67
2023-03-17T12:00:31.557Z,26.68
2023-03-17T12:04:31.184Z,26.65
2023-03-17T12:08:31.279Z,26.62
2023-03-17T12:12:31.256Z,26.61
2023-03-17T12:16:31.751Z,26.61
2023-03-17T12:20:32.018Z,26.59
2023-03-17T12:24:31.488Z,26.62
2023-03-17T12:28:31.744Z,26.58
2023-03-17T12:32:31.777Z,26.58
2023-03-17T12:36:31.752Z,26.55
2023-03-17T12:40:32.684Z,26.56
2023-03-17T12:44:31.913Z,26.56
2023-03-17T12:48:32.759Z,26.55
2023-03-17T12:52:32.073Z,26.54
2023-03-17T12:56:32.386Z,26.51
2023-03-17T13:00:32.248Z,26.54
2023-03-17T13:04:32.772Z,26.51
2023-03-17T13:08:32.779Z,26.48
2023-03-17T13:12:32.794Z,26.50
2023-03-17T13:16:33.288Z,26.48
2023-03-17T13:20:33.062Z,26.50
2023-03-17T13:24:33.239Z,26.50
2023-03-17T13:28:33.434Z,26.47
2023-03-17T13:32:33.885Z,26.50
2023-03-17T13:36:33.781Z,26.47
2023-03-17T13:40:34.278Z,26.48
2023-03-17T13:44:34.201Z,26.48
2023-03-17T13:48:34.791Z,26.47
2023-03-17T13:52:34.788Z,26.45
2023-03-17T13:56:34.800Z,26.45
2023-03-17T14:00:34.965Z,26.45
2023-03-17T14:04:35.834Z,26.45
2023-03-17T14:08:35.322Z,26.45
2023-03-17T14:12:34.812Z,26.45
2023-03-17T14:16:36.027Z,26.44
2023-03-17T14:20:35.831Z,26.44
2023-03-17T14:24:36.332Z,26.45
2023-03-17T14:28:36.802Z,26.47
2023-03-17T14:32:36.915Z,26.45
2023-03-17T14:36:36.813Z,26.45
2023-03-17T14:40:36.709Z,26.44
2023-03-17T14:44:36.867Z,26.43
2023-03-17T14:48:37.101Z,26.44
2023-03-17T14:52:37.815Z,26.43
2023-03-17T14:56:37.417Z,26.41
2023-03-17T15:00:37.607Z,26.38
2023-03-17T15:04:37.888Z,26.38
2023-03-17T15:08:38.343Z,26.36
2023-03-17T15:12:38.113Z,26.36
2023-03-17T15:16:38.367Z,26.40
2023-03-17T15:20:38.852Z,26.36
2023-03-17T15:24:38.829Z,26.34
2023-03-17T15:28:39.832Z,26.36
2023-03-17T15:32:39.388Z,26.33
2023-03-17T15:36:39.378Z,26.33
2023-03-17T15:40:39.391Z,26.34
2023-03-17T15:44:39.581Z,26.31
2023-03-17T15:48:39.862Z,26.33
2023-03-17T15:52:39.982Z,26.31
2023-03-17T15:56:40.120Z,26.33
2023-03-17T16:00:40.294Z,26.33
2023-03-17T16:04:40.930Z,26.30
2023-03-17T16:08:40.665Z,26.31
2023-03-17T16:12:40.848Z,26.31
2023-03-17T16:16:40.992Z,26.31
2023-03-17T16:20:41.180Z,26.29
2023-03-17T16:24:41.420Z,26.29
2023-03-17T16:28:41.551Z,26.30
2023-03-17T16:32:41.887Z,26.27
2023-03-17T16:36:41.920Z,26.26
2023-03-17T16:40:42.386Z,26.27
2023-03-17T16:44:42.358Z,26.27
2023-03-17T19:24:44.437Z,25.97
2023-03-17T19:48:44.205Z,26.06
2023-03-17T19:52:44.218Z,26.03
2023-03-17T19:56:44.458Z,26.09
2023-03-17T20:00:44.219Z,26.07
2023-03-17T20:04:44.321Z,26.06
2023-03-17T20:08:44.271Z,26.07
2023-03-17T20:12:44.396Z,26.10
2023-03-17T20:16:44.577Z,26.10
2023-03-17T20:20:44.534Z,26.10
2023-03-17T20:24:44.985Z,26.09
2023-03-17T20:28:44.470Z,26.09
2023-03-17T20:32:44.527Z,26.09
2023-03-17T20:36:44.389Z,26.09
2023-03-17T20:40:44.472Z,26.07
2023-03-17T20:44:44.623Z,26.10
2023-03-17T20:48:44.592Z,26.12
2023-03-17T20:52:44.562Z,26.10
2023-03-17T20:56:44.571Z,26.07
2023-03-17T21:00:44.486Z,26.10
2023-03-17T21:04:44.478Z,26.10
2023-03-17T21:08:44.414Z,26.09
2023-03-17T21:12:44.554Z,26.10
2023-03-17T21:16:44.476Z,26.07
2023-03-17T21:20:44.437Z,26.10
2023-03-17T21:24:44.415Z,26.09
2023-03-17T21:28:44.386Z,26.12
2023-03-17T21:32:44.386Z,26.12
2023-03-17T21:36:44.295Z,26.09
2023-03-17T21:40:44.395Z,26.09
2023-03-17T21:44:45.524Z,26.06
2023-03-17T21:48:44.550Z,26.04
2023-03-17T21:56:44.468Z,26.06
2023-03-17T22:00:46.127Z,26.06
2023-03-17T22:04:44.406Z,26.06
2023-03-17T22:12:44.509Z,26.03
2023-03-17T22:16:44.430Z,26.06
2023-03-17T22:20:44.244Z,26.06
2023-03-17T22:24:44.217Z,26.04
2023-03-17T22:32:44.173Z,26.04
2023-03-17T22:40:44.363Z,26.04
2023-03-17T22:44:45.027Z,26.04
2023-03-17T22:48:44.762Z,26.03
2023-03-17T22:52:44.725Z,26.03
2023-03-17T22:56:44.685Z,26.04
2023-03-17T23:00:44.632Z,26.03
2023-03-17T23:04:44.617Z,26.02
2023-03-17T23:08:44.559Z,26.02
2023-03-17T23:12:44.522Z,26.04
2023-03-17T23:16:44.530Z,26.03
2023-03-17T23:20:44.522Z,26.03
2023-03-17T23:24:44.616Z,26.02
2023-03-17T23:28:44.694Z,26.00
2023-03-17T23:32:44.791Z,26.00
2023-03-17T23:36:44.891Z,26.02
2023-03-17T23:40:44.929Z,25.99
2023-03-17T23:44:45.073Z,26.00
2023-03-17T23:48:45.120Z,25.97
2023-03-17T23:52:45.309Z,25.99
2023-03-17T23:56:45.391Z,26.00
